sensor_id;sensor_type;location;lat;lon;timestamp;pressure;altitude;pressure_sealevel;temperature
19666;BMP180;9980;51.020;7.772;2022-09-03T00:00:19;97292.00;;;15.10
19666;BMP180;9980;51.020;7.772;2022-09-03T00:03:18;97300.00;;;15.00
19666;BMP180;9980;51.020;7.772;2022-09-03T00:06:13;97279.00;;;15.00
19666;BMP180;9980;51.020;7.772;2022-09-03T00:09:05;97301.00;;;14.90
19666;BMP180;9980;51.020;7.772;2022-09-03T00:14:27;97291.00;;;14.90
19666;BMP180;9980;51.020;7.772;2022-09-03T00:17:15;97280.00;;;14.80
19666;BMP180;9980;51.020;7.772;2022-09-03T00:19:55;97282.00;;;14.80
19666;BMP180;9980;51.020;7.772;2022-09-03T00:22:32;97279.00;;;14.80
19666;BMP180;9980;51.020;7.772;2022-09-03T00:25:06;97280.00;;;14.70
19666;BMP180;9980;51.020;7.772;2022-09-03T00:27:39;97278.00;;;14.70
19666;BMP180;9980;51.020;7.772;2022-09-03T00:30:14;97290.00;;;14.70
19666;BMP180;9980;51.020;7.772;2022-09-03T00:33:12;97288.00;;;14.60
19666;BMP180;9980;51.020;7.772;2022-09-03T00:36:17;97294.00;;;14.60
19666;BMP180;9980;51.020;7.772;2022-09-03T00:38:45;97287.00;;;14.60
19666;BMP180;9980;51.020;7.772;2022-09-03T00:41:27;97286.00;;;14.60
19666;BMP180;9980;51.020;7.772;2022-09-03T00:44:34;97290.00;;;14.50
19666;BMP180;9980;51.020;7.772;2022-09-03T00:50:44;97290.00;;;14.40
19666;BMP180;9980;51.020;7.772;2022-09-03T00:53:34;97284.00;;;14.30
19666;BMP180;9980;51.020;7.772;2022-09-03T01:12:54;97279.00;;;14.10
19666;BMP180;9980;51.020;7.772;2022-09-03T01:15:38;97276.00;;;14.00
19666;BMP180;9980;51.020;7.772;2022-09-03T01:18:43;97277.00;;;14.00
19666;BMP180;9980;51.020;7.772;2022-09-03T01:21:46;97287.00;;;14.00
19666;BMP180;9980;51.020;7.772;2022-09-03T01:28:00;97283.00;;;13.90
19666;BMP180;9980;51.020;7.772;2022-09-03T01:30:32;97282.00;;;13.90
19666;BMP180;9980;51.020;7.772;2022-09-03T01:36:14;97275.00;;;13.90
19666;BMP180;9980;51.020;7.772;2022-09-03T01:39:05;97265.00;;;13.90
19666;BMP180;9980;51.020;7.772;2022-09-03T01:42:31;97274.00;;;13.80
19666;BMP180;9980;51.020;7.772;2022-09-03T01:45:23;97300.00;;;13.80
19666;BMP180;9980;51.020;7.772;2022-09-03T01:48:07;97277.00;;;13.80
19666;BMP180;9980;51.020;7.772;2022-09-03T01:56:34;97278.00;;;13.70
19666;BMP180;9980;51.020;7.772;2022-09-03T01:59:25;97266.00;;;13.70
19666;BMP180;9980;51.020;7.772;2022-09-03T02:02:19;97263.00;;;13.70
19666;BMP180;9980;51.020;7.772;2022-09-03T02:05:06;97278.00;;;13.70
19666;BMP180;9980;51.020;7.772;2022-09-03T02:07:59;97276.00;;;13.60
19666;BMP180;9980;51.020;7.772;2022-09-03T02:10:42;97275.00;;;13.60
19666;BMP180;9980;51.020;7.772;2022-09-03T02:13:17;97269.00;;;13.60
19666;BMP180;9980;51.020;7.772;2022-09-03T02:15:49;97268.00;;;13.50
19666;BMP180;9980;51.020;7.772;2022-09-03T02:18:25;97278.00;;;13.50
19666;BMP180;9980;51.020;7.772;2022-09-03T02:20:54;97268.00;;;13.50
19666;BMP180;9980;51.020;7.772;2022-09-03T02:23:23;97261.00;;;13.50
19666;BMP180;9980;51.020;7.772;2022-09-03T02:26:01;97261.00;;;13.50
19666;BMP180;9980;51.020;7.772;2022-09-03T02:28:30;97260.00;;;13.50
19666;BMP180;9980;51.020;7.772;2022-09-03T02:30:58;97268.00;;;13.50
19666;BMP180;9980;51.020;7.772;2022-09-03T02:33:26;97256.00;;;13.50
19666;BMP180;9980;51.020;7.772;2022-09-03T02:35:53;97260.00;;;13.50
19666;BMP180;9980;51.020;7.772;2022-09-03T02:38:25;97264.00;;;13.40
19666;BMP180;9980;51.020;7.772;2022-09-03T02:40:52;97262.00;;;13.40
19666;BMP180;9980;51.020;7.772;2022-09-03T02:46:45;97254.00;;;13.30
19666;BMP180;9980;51.020;7.772;2022-09-03T02:49:14;97257.00;;;13.30
19666;BMP180;9980;51.020;7.772;2022-09-03T02:51:42;97265.00;;;13.30
19666;BMP180;9980;51.020;7.772;2022-09-03T02:54:11;97252.00;;;13.30
19666;BMP180;9980;51.020;7.772;2022-09-03T02:56:44;97253.00;;;13.30
19666;BMP180;9980;51.020;7.772;2022-09-03T02:59:14;97254.00;;;13.30
19666;BMP180;9980;51.020;7.772;2022-09-03T03:01:41;97260.00;;;13.30
19666;BMP180;9980;51.020;7.772;2022-09-03T03:04:12;97247.00;;;13.30
19666;BMP180;9980;51.020;7.772;2022-09-03T03:06:42;97244.00;;;13.20
19666;BMP180;9980;51.020;7.772;2022-09-03T03:09:13;97267.00;;;13.20
19666;BMP180;9980;51.020;7.772;2022-09-03T03:11:40;97253.00;;;13.20
19666;BMP180;9980;51.020;7.772;2022-09-03T03:14:07;97249.00;;;13.20
19666;BMP180;9980;51.020;7.772;2022-09-03T03:16:34;97239.00;;;13.20
19666;BMP180;9980;51.020;7.772;2022-09-03T03:19:01;97257.00;;;13.20
19666;BMP180;9980;51.020;7.772;2022-09-03T03:21:28;97245.00;;;13.20
19666;BMP180;9980;51.020;7.772;2022-09-03T03:23:56;97243.00;;;13.20
19666;BMP180;9980;51.020;7.772;2022-09-03T03:26:23;97245.00;;;13.10
19666;BMP180;9980;51.020;7.772;2022-09-03T03:28:56;97245.00;;;13.10
19666;BMP180;9980;51.020;7.772;2022-09-03T03:31:24;97222.00;;;13.10
19666;BMP180;9980;51.020;7.772;2022-09-03T03:33:56;97236.00;;;13.10
19666;BMP180;9980;51.020;7.772;2022-09-03T03:36:27;97243.00;;;13.10
19666;BMP180;9980;51.020;7.772;2022-09-03T03:38:57;97230.00;;;13.10
19666;BMP180;9980;51.020;7.772;2022-09-03T03:41:29;97245.00;;;13.10
19666;BMP180;9980;51.020;7.772;2022-09-03T03:44:05;97246.00;;;13.00
19666;BMP180;9980;51.020;7.772;2022-09-03T03:46:36;97247.00;;;13.00
19666;BMP180;9980;51.020;7.772;2022-09-03T03:49:04;97243.00;;;13.00
19666;BMP180;9980;51.020;7.772;2022-09-03T03:51:35;97233.00;;;13.00
19666;BMP180;9980;51.020;7.772;2022-09-03T03:54:04;97235.00;;;13.00
19666;BMP180;9980;51.020;7.772;2022-09-03T03:56:32;97241.00;;;13.00
19666;BMP180;9980;51.020;7.772;2022-09-03T03:59:00;97239.00;;;13.00
19666;BMP180;9980;51.020;7.772;2022-09-03T04:01:27;97242.00;;;13.00
19666;BMP180;9980;51.020;7.772;2022-09-03T04:03:56;97223.00;;;13.00
19666;BMP180;9980;51.020;7.772;2022-09-03T04:06:25;97230.00;;;13.00
19666;BMP180;9980;51.020;7.772;2022-09-03T04:08:52;97225.00;;;13.00
19666;BMP180;9980;51.020;7.772;2022-09-03T04:11:22;97228.00;;;13.00
19666;BMP180;9980;51.020;7.772;2022-09-03T04:13:51;97227.00;;;13.00
19666;BMP180;9980;51.020;7.772;2022-09-03T04:16:22;97219.00;;;12.90
19666;BMP180;9980;51.020;7.772;2022-09-03T04:18:50;97236.00;;;12.90
19666;BMP180;9980;51.020;7.772;2022-09-03T04:21:21;97217.00;;;12.90
19666;BMP180;9980;51.020;7.772;2022-09-03T04:23:50;97223.00;;;12.90
19666;BMP180;9980;51.020;7.772;2022-09-03T04:26:25;97217.00;;;12.90
19666;BMP180;9980;51.020;7.772;2022-09-03T04:28:54;97214.00;;;12.90
19666;BMP180;9980;51.020;7.772;2022-09-03T04:31:21;97205.00;;;12.90
19666;BMP180;9980;51.020;7.772;2022-09-03T04:33:48;97221.00;;;12.90
19666;BMP180;9980;51.020;7.772;2022-09-03T04:36:23;97209.00;;;12.90
19666;BMP180;9980;51.020;7.772;2022-09-03T04:38:53;97206.00;;;12.90
19666;BMP180;9980;51.020;7.772;2022-09-03T04:41:26;97225.00;;;12.80
19666;BMP180;9980;51.020;7.772;2022-09-03T04:43:56;97224.00;;;12.80
19666;BMP180;9980;51.020;7.772;2022-09-03T04:46:27;97222.00;;;12.80
19666;BMP180;9980;51.020;7.772;2022-09-03T04:48:59;97212.00;;;12.80
19666;BMP180;9980;51.020;7.772;2022-09-03T04:51:28;97219.00;;;12.80
19666;BMP180;9980;51.020;7.772;2022-09-03T04:53:58;97214.00;;;12.80
19666;BMP180;9980;51.020;7.772;2022-09-03T04:56:30;97223.00;;;12.80
19666;BMP180;9980;51.020;7.772;2022-09-03T04:59:06;97214.00;;;12.80
19666;BMP180;9980;51.020;7.772;2022-09-03T05:01:37;97215.00;;;12.80
19666;BMP180;9980;51.020;7.772;2022-09-03T05:04:06;97200.00;;;12.80
19666;BMP180;9980;51.020;7.772;2022-09-03T05:06:34;97213.00;;;12.80
19666;BMP180;9980;51.020;7.772;2022-09-03T05:09:03;97221.00;;;12.80
19666;BMP180;9980;51.020;7.772;2022-09-03T05:11:31;97222.00;;;12.90
19666;BMP180;9980;51.020;7.772;2022-09-03T05:13:59;97212.00;;;12.80
19666;BMP180;9980;51.020;7.772;2022-09-03T05:16:28;97213.00;;;12.80
19666;BMP180;9980;51.020;7.772;2022-09-03T05:18:58;97220.00;;;12.90
19666;BMP180;9980;51.020;7.772;2022-09-03T05:21:27;97210.00;;;12.90
19666;BMP180;9980;51.020;7.772;2022-09-03T05:23:55;97209.00;;;12.90
19666;BMP180;9980;51.020;7.772;2022-09-03T05:26:29;97207.00;;;12.90
19666;BMP180;9980;51.020;7.772;2022-09-03T05:28:59;97216.00;;;12.90
19666;BMP180;9980;51.020;7.772;2022-09-03T05:31:29;97213.00;;;12.90
19666;BMP180;9980;51.020;7.772;2022-09-03T05:34:01;97227.00;;;13.00
19666;BMP180;9980;51.020;7.772;2022-09-03T05:36:35;97221.00;;;13.00
19666;BMP180;9980;51.020;7.772;2022-09-03T05:39:04;97217.00;;;13.10
19666;BMP180;9980;51.020;7.772;2022-09-03T05:41:31;97206.00;;;13.10
19666;BMP180;9980;51.020;7.772;2022-09-03T05:44:00;97218.00;;;13.10
19666;BMP180;9980;51.020;7.772;2022-09-03T05:46:31;97225.00;;;13.20
19666;BMP180;9980;51.020;7.772;2022-09-03T05:49:00;97230.00;;;13.20
19666;BMP180;9980;51.020;7.772;2022-09-03T05:51:29;97224.00;;;13.30
19666;BMP180;9980;51.020;7.772;2022-09-03T05:53:57;97223.00;;;13.40
19666;BMP180;9980;51.020;7.772;2022-09-03T05:56:28;97223.00;;;13.50
19666;BMP180;9980;51.020;7.772;2022-09-03T05:58:58;97216.00;;;13.50
19666;BMP180;9980;51.020;7.772;2022-09-03T06:01:37;97218.00;;;13.60
19666;BMP180;9980;51.020;7.772;2022-09-03T06:04:09;97215.00;;;13.70
19666;BMP180;9980;51.020;7.772;2022-09-03T06:06:39;97222.00;;;13.80
19666;BMP180;9980;51.020;7.772;2022-09-03T06:09:10;97214.00;;;14.00
19666;BMP180;9980;51.020;7.772;2022-09-03T06:11:39;97214.00;;;14.10
19666;BMP180;9980;51.020;7.772;2022-09-03T06:14:09;97221.00;;;14.20
19666;BMP180;9980;51.020;7.772;2022-09-03T06:16:40;97220.00;;;14.30
19666;BMP180;9980;51.020;7.772;2022-09-03T06:19:09;97222.00;;;14.50
19666;BMP180;9980;51.020;7.772;2022-09-03T06:21:39;97216.00;;;14.60
19666;BMP180;9980;51.020;7.772;2022-09-03T06:24:15;97232.00;;;14.70
19666;BMP180;9980;51.020;7.772;2022-09-03T06:26:42;97224.00;;;14.80
19666;BMP180;9980;51.020;7.772;2022-09-03T06:29:11;97216.00;;;15.00
19666;BMP180;9980;51.020;7.772;2022-09-03T06:31:38;97207.00;;;15.10
19666;BMP180;9980;51.020;7.772;2022-09-03T06:34:06;97215.00;;;15.30
19666;BMP180;9980;51.020;7.772;2022-09-03T06:36:33;97205.00;;;15.40
19666;BMP180;9980;51.020;7.772;2022-09-03T06:39:00;97206.00;;;15.60
19666;BMP180;9980;51.020;7.772;2022-09-03T06:41:30;97211.00;;;15.70
19666;BMP180;9980;51.020;7.772;2022-09-03T06:44:05;97207.00;;;15.90
19666;BMP180;9980;51.020;7.772;2022-09-03T06:46:39;97207.00;;;16.10
19666;BMP180;9980;51.020;7.772;2022-09-03T06:49:10;97217.00;;;16.30
19666;BMP180;9980;51.020;7.772;2022-09-03T06:51:38;97221.00;;;16.50
19666;BMP180;9980;51.020;7.772;2022-09-03T06:54:10;97219.00;;;16.70
19666;BMP180;9980;51.020;7.772;2022-09-03T06:56:39;97216.00;;;16.80
19666;BMP180;9980;51.020;7.772;2022-09-03T06:59:10;97222.00;;;17.10
19666;BMP180;9980;51.020;7.772;2022-09-03T07:01:38;97220.00;;;17.30
19666;BMP180;9980;51.020;7.772;2022-09-03T07:04:12;97221.00;;;17.50
19666;BMP180;9980;51.020;7.772;2022-09-03T07:06:42;97217.00;;;17.70
19666;BMP180;9980;51.020;7.772;2022-09-03T07:09:13;97215.00;;;17.90
19666;BMP180;9980;51.020;7.772;2022-09-03T07:11:41;97222.00;;;18.10
19666;BMP180;9980;51.020;7.772;2022-09-03T07:14:19;97222.00;;;18.20
19666;BMP180;9980;51.020;7.772;2022-09-03T07:16:48;97220.00;;;18.40
19666;BMP180;9980;51.020;7.772;2022-09-03T07:19:16;97209.00;;;18.60
19666;BMP180;9980;51.020;7.772;2022-09-03T07:21:43;97228.00;;;18.80
19666;BMP180;9980;51.020;7.772;2022-09-03T07:24:18;97222.00;;;18.90
19666;BMP180;9980;51.020;7.772;2022-09-03T07:26:45;97223.00;;;19.10
19666;BMP180;9980;51.020;7.772;2022-09-03T07:29:14;97217.00;;;19.30
19666;BMP180;9980;51.020;7.772;2022-09-03T07:31:47;97212.00;;;19.50
19666;BMP180;9980;51.020;7.772;2022-09-03T07:34:18;97213.00;;;19.60
19666;BMP180;9980;51.020;7.772;2022-09-03T07:36:48;97206.00;;;19.80
19666;BMP180;9980;51.020;7.772;2022-09-03T07:39:18;97200.00;;;19.90
19666;BMP180;9980;51.020;7.772;2022-09-03T07:41:45;97216.00;;;20.00
19666;BMP180;9980;51.020;7.772;2022-09-03T07:44:15;97209.00;;;20.20
19666;BMP180;9980;51.020;7.772;2022-09-03T07:46:44;97206.00;;;20.30
19666;BMP180;9980;51.020;7.772;2022-09-03T07:49:13;97213.00;;;20.50
19666;BMP180;9980;51.020;7.772;2022-09-03T07:51:40;97222.00;;;20.60
19666;BMP180;9980;51.020;7.772;2022-09-03T07:54:09;97224.00;;;20.70
19666;BMP180;9980;51.020;7.772;2022-09-03T07:56:41;97226.00;;;20.80
19666;BMP180;9980;51.020;7.772;2022-09-03T07:59:08;97233.00;;;21.00
19666;BMP180;9980;51.020;7.772;2022-09-03T08:01:37;97216.00;;;21.10
19666;BMP180;9980;51.020;7.772;2022-09-03T08:04:07;97212.00;;;21.20
19666;BMP180;9980;51.020;7.772;2022-09-03T08:06:37;97223.00;;;21.30
19666;BMP180;9980;51.020;7.772;2022-09-03T08:09:09;97211.00;;;21.50
19666;BMP180;9980;51.020;7.772;2022-09-03T08:11:40;97214.00;;;21.60
19666;BMP180;9980;51.020;7.772;2022-09-03T08:14:11;97224.00;;;21.70
19666;BMP180;9980;51.020;7.772;2022-09-03T08:16:42;97230.00;;;21.80
19666;BMP180;9980;51.020;7.772;2022-09-03T08:19:10;97234.00;;;22.00
19666;BMP180;9980;51.020;7.772;2022-09-03T08:21:40;97236.00;;;22.10
19666;BMP180;9980;51.020;7.772;2022-09-03T08:24:09;97220.00;;;22.20
19666;BMP180;9980;51.020;7.772;2022-09-03T08:26:41;97226.00;;;22.30
19666;BMP180;9980;51.020;7.772;2022-09-03T08:29:18;97236.00;;;22.50
19666;BMP180;9980;51.020;7.772;2022-09-03T08:31:45;97223.00;;;22.60
19666;BMP180;9980;51.020;7.772;2022-09-03T08:34:12;97235.00;;;22.70
19666;BMP180;9980;51.020;7.772;2022-09-03T08:36:40;97222.00;;;22.90
19666;BMP180;9980;51.020;7.772;2022-09-03T08:39:09;97233.00;;;23.00
19666;BMP180;9980;51.020;7.772;2022-09-03T08:44:29;97227.00;;;23.20
19666;BMP180;9980;51.020;7.772;2022-09-03T08:47:21;97241.00;;;23.30
19666;BMP180;9980;51.020;7.772;2022-09-03T08:57:50;97243.00;;;23.60
19666;BMP180;9980;51.020;7.772;2022-09-03T09:00:18;97245.00;;;23.60
19666;BMP180;9980;51.020;7.772;2022-09-03T09:03:16;97249.00;;;23.60
19666;BMP180;9980;51.020;7.772;2022-09-03T09:06:07;97236.00;;;23.70
19666;BMP180;9980;51.020;7.772;2022-09-03T09:11:47;97231.00;;;24.00
19666;BMP180;9980;51.020;7.772;2022-09-03T09:14:36;97230.00;;;24.10
19666;BMP180;9980;51.020;7.772;2022-09-03T09:23:33;97234.00;;;24.40
19666;BMP180;9980;51.020;7.772;2022-09-03T09:26:09;97232.00;;;24.40
19666;BMP180;9980;51.020;7.772;2022-09-03T09:28:38;97238.00;;;24.50
19666;BMP180;9980;51.020;7.772;2022-09-03T09:31:10;97246.00;;;24.50
19666;BMP180;9980;51.020;7.772;2022-09-03T09:33:41;97234.00;;;24.50
19666;BMP180;9980;51.020;7.772;2022-09-03T09:36:13;97233.00;;;24.40
19666;BMP180;9980;51.020;7.772;2022-09-03T09:38:43;97229.00;;;24.50
19666;BMP180;9980;51.020;7.772;2022-09-03T09:41:19;97231.00;;;24.50
19666;BMP180;9980;51.020;7.772;2022-09-03T09:43:46;97246.00;;;24.50
19666;BMP180;9980;51.020;7.772;2022-09-03T09:46:24;97235.00;;;24.40
19666;BMP180;9980;51.020;7.772;2022-09-03T09:48:56;97240.00;;;24.40
19666;BMP180;9980;51.020;7.772;2022-09-03T09:51:29;97242.00;;;24.40
19666;BMP180;9980;51.020;7.772;2022-09-03T09:54:17;97233.00;;;24.50
19666;BMP180;9980;51.020;7.772;2022-09-03T09:57:01;97240.00;;;24.50
19666;BMP180;9980;51.020;7.772;2022-09-03T09:59:29;97235.00;;;24.60
19666;BMP180;9980;51.020;7.772;2022-09-03T10:02:27;97239.00;;;24.60
19666;BMP180;9980;51.020;7.772;2022-09-03T10:05:11;97235.00;;;24.70
19666;BMP180;9980;51.020;7.772;2022-09-03T10:07:40;97243.00;;;24.80
19666;BMP180;9980;51.020;7.772;2022-09-03T10:10:17;97235.00;;;24.80
19666;BMP180;9980;51.020;7.772;2022-09-03T10:12:59;97252.00;;;24.80
19666;BMP180;9980;51.020;7.772;2022-09-03T10:15:46;97259.00;;;24.90
19666;BMP180;9980;51.020;7.772;2022-09-03T10:18:36;97240.00;;;24.90
19666;BMP180;9980;51.020;7.772;2022-09-03T10:21:26;97240.00;;;24.90
19666;BMP180;9980;51.020;7.772;2022-09-03T10:24:29;97244.00;;;24.90
19666;BMP180;9980;51.020;7.772;2022-09-03T10:26:59;97239.00;;;25.00
19666;BMP180;9980;51.020;7.772;2022-09-03T10:29:27;97248.00;;;25.00
19666;BMP180;9980;51.020;7.772;2022-09-03T10:32:44;97263.00;;;25.00
19666;BMP180;9980;51.020;7.772;2022-09-03T10:35:31;97260.00;;;25.00
19666;BMP180;9980;51.020;7.772;2022-09-03T10:38:17;97255.00;;;25.00
19666;BMP180;9980;51.020;7.772;2022-09-03T10:44:39;97248.00;;;25.00
19666;BMP180;9980;51.020;7.772;2022-09-03T10:48:04;97244.00;;;25.00
19666;BMP180;9980;51.020;7.772;2022-09-03T10:50:58;97246.00;;;25.10
19666;BMP180;9980;51.020;7.772;2022-09-03T10:53:54;97257.00;;;25.10
19666;BMP180;9980;51.020;7.772;2022-09-03T10:59:42;97244.00;;;25.30
19666;BMP180;9980;51.020;7.772;2022-09-03T11:05:30;97232.00;;;25.40
19666;BMP180;9980;51.020;7.772;2022-09-03T11:08:17;97241.00;;;25.40
19666;BMP180;9980;51.020;7.772;2022-09-03T11:10:59;97253.00;;;25.50
19666;BMP180;9980;51.020;7.772;2022-09-03T11:13:36;97249.00;;;25.60
19666;BMP180;9980;51.020;7.772;2022-09-03T11:16:16;97232.00;;;25.60
19666;BMP180;9980;51.020;7.772;2022-09-03T11:18:54;97237.00;;;25.70
19666;BMP180;9980;51.020;7.772;2022-09-03T11:21:29;97240.00;;;25.70
19666;BMP180;9980;51.020;7.772;2022-09-03T11:24:17;97247.00;;;25.80
19666;BMP180;9980;51.020;7.772;2022-09-03T11:26:59;97248.00;;;25.90
19666;BMP180;9980;51.020;7.772;2022-09-03T11:29:45;97254.00;;;25.90
19666;BMP180;9980;51.020;7.772;2022-09-03T11:32:20;97262.00;;;26.00
19666;BMP180;9980;51.020;7.772;2022-09-03T11:34:52;97265.00;;;26.00
19666;BMP180;9980;51.020;7.772;2022-09-03T11:37:29;97255.00;;;26.00
19666;BMP180;9980;51.020;7.772;2022-09-03T11:40:13;97241.00;;;26.00
19666;BMP180;9980;51.020;7.772;2022-09-03T11:42:45;97241.00;;;26.00
19666;BMP180;9980;51.020;7.772;2022-09-03T11:45:33;97252.00;;;26.00
19666;BMP180;9980;51.020;7.772;2022-09-03T11:48:01;97240.00;;;26.00
19666;BMP180;9980;51.020;7.772;2022-09-03T11:50:53;97253.00;;;26.00
19666;BMP180;9980;51.020;7.772;2022-09-03T11:53:31;97234.00;;;26.00
19666;BMP180;9980;51.020;7.772;2022-09-03T11:58:36;97232.00;;;26.00
19666;BMP180;9980;51.020;7.772;2022-09-03T12:01:10;97226.00;;;26.00
19666;BMP180;9980;51.020;7.772;2022-09-03T12:03:52;97230.00;;;26.00
19666;BMP180;9980;51.020;7.772;2022-09-03T12:09:46;97230.00;;;26.10
19666;BMP180;9980;51.020;7.772;2022-09-03T12:16:09;97223.00;;;26.20
19666;BMP180;9980;51.020;7.772;2022-09-03T12:18:40;97231.00;;;26.20
19666;BMP180;9980;51.020;7.772;2022-09-03T12:21:10;97225.00;;;26.30
19666;BMP180;9980;51.020;7.772;2022-09-03T12:23:51;97228.00;;;26.30
19666;BMP180;9980;51.020;7.772;2022-09-03T12:26:25;97243.00;;;26.40
19666;BMP180;9980;51.020;7.772;2022-09-03T12:28:58;97216.00;;;26.40
19666;BMP180;9980;51.020;7.772;2022-09-03T12:31:29;97241.00;;;26.50
19666;BMP180;9980;51.020;7.772;2022-09-03T12:34:11;97236.00;;;26.50
19666;BMP180;9980;51.020;7.772;2022-09-03T12:36:45;97241.00;;;26.50
19666;BMP180;9980;51.020;7.772;2022-09-03T12:42:24;97238.00;;;26.60
19666;BMP180;9980;51.020;7.772;2022-09-03T12:44:52;97225.00;;;26.60
19666;BMP180;9980;51.020;7.772;2022-09-03T12:47:23;97226.00;;;26.70
19666;BMP180;9980;51.020;7.772;2022-09-03T12:50:17;97222.00;;;26.70
19666;BMP180;9980;51.020;7.772;2022-09-03T12:52:51;97227.00;;;26.80
19666;BMP180;9980;51.020;7.772;2022-09-03T12:55:42;97216.00;;;26.90
19666;BMP180;9980;51.020;7.772;2022-09-03T12:58:34;97214.00;;;27.00
19666;BMP180;9980;51.020;7.772;2022-09-03T13:01:11;97213.00;;;27.00
19666;BMP180;9980;51.020;7.772;2022-09-03T13:04:04;97225.00;;;27.10
19666;BMP180;9980;51.020;7.772;2022-09-03T13:06:55;97231.00;;;27.20
19666;BMP180;9980;51.020;7.772;2022-09-03T13:09:29;97211.00;;;27.30
19666;BMP180;9980;51.020;7.772;2022-09-03T13:11:56;97208.00;;;27.40
19666;BMP180;9980;51.020;7.772;2022-09-03T13:14:26;97205.00;;;27.60
19666;BMP180;9980;51.020;7.772;2022-09-03T13:17:28;97203.00;;;27.60
19666;BMP180;9980;51.020;7.772;2022-09-03T13:20:28;97193.00;;;27.80
19666;BMP180;9980;51.020;7.772;2022-09-03T13:26:46;97198.00;;;28.00
19666;BMP180;9980;51.020;7.772;2022-09-03T13:38:24;97203.00;;;28.50
19666;BMP180;9980;51.020;7.772;2022-09-03T13:41:08;97192.00;;;28.60
19666;BMP180;9980;51.020;7.772;2022-09-03T13:43:59;97211.00;;;28.70
19666;BMP180;9980;51.020;7.772;2022-09-03T13:46:50;97207.00;;;28.80
19666;BMP180;9980;51.020;7.772;2022-09-03T13:49:38;97203.00;;;28.90
19666;BMP180;9980;51.020;7.772;2022-09-03T13:52:59;97214.00;;;29.10
19666;BMP180;9980;51.020;7.772;2022-09-03T13:55:52;97204.00;;;29.20
19666;BMP180;9980;51.020;7.772;2022-09-03T13:58:46;97210.00;;;29.30
19666;BMP180;9980;51.020;7.772;2022-09-03T14:02:01;97198.00;;;29.30
19666;BMP180;9980;51.020;7.772;2022-09-03T14:07:45;97214.00;;;29.50
19666;BMP180;9980;51.020;7.772;2022-09-03T14:12:52;97215.00;;;29.60
19666;BMP180;9980;51.020;7.772;2022-09-03T14:18:58;97214.00;;;29.60
19666;BMP180;9980;51.020;7.772;2022-09-03T14:21:41;97229.00;;;29.60
19666;BMP180;9980;51.020;7.772;2022-09-03T14:24:45;97228.00;;;29.60
19666;BMP180;9980;51.020;7.772;2022-09-03T14:27:29;97212.00;;;29.60
19666;BMP180;9980;51.020;7.772;2022-09-03T14:30:17;97214.00;;;29.60
19666;BMP180;9980;51.020;7.772;2022-09-03T14:33:28;97205.00;;;29.60
19666;BMP180;9980;51.020;7.772;2022-09-03T14:36:15;97218.00;;;29.60
19666;BMP180;9980;51.020;7.772;2022-09-03T14:39:11;97231.00;;;29.60
19666;BMP180;9980;51.020;7.772;2022-09-03T14:50:50;97207.00;;;29.40
19666;BMP180;9980;51.020;7.772;2022-09-03T14:54:22;97222.00;;;29.30
19666;BMP180;9980;51.020;7.772;2022-09-03T15:00:05;97219.00;;;29.10
19666;BMP180;9980;51.020;7.772;2022-09-03T15:06:24;97222.00;;;28.90
19666;BMP180;9980;51.020;7.772;2022-09-03T15:12:24;97217.00;;;28.80
19666;BMP180;9980;51.020;7.772;2022-09-03T15:14:58;97228.00;;;28.80
19666;BMP180;9980;51.020;7.772;2022-09-03T15:17:54;97234.00;;;28.70
19666;BMP180;9980;51.020;7.772;2022-09-03T15:20:49;97228.00;;;28.60
19666;BMP180;9980;51.020;7.772;2022-09-03T15:23:42;97227.00;;;28.50
19666;BMP180;9980;51.020;7.772;2022-09-03T15:26:52;97229.00;;;28.40
19666;BMP180;9980;51.020;7.772;2022-09-03T15:32:49;97225.00;;;28.30
19666;BMP180;9980;51.020;7.772;2022-09-03T15:35:51;97228.00;;;28.30
19666;BMP180;9980;51.020;7.772;2022-09-03T15:38:59;97225.00;;;28.30
19666;BMP180;9980;51.020;7.772;2022-09-03T15:42:00;97229.00;;;28.30
19666;BMP180;9980;51.020;7.772;2022-09-03T15:44:47;97221.00;;;28.30
19666;BMP180;9980;51.020;7.772;2022-09-03T15:53:14;97221.00;;;28.20
19666;BMP180;9980;51.020;7.772;2022-09-03T15:58:47;97227.00;;;28.10
19666;BMP180;9980;51.020;7.772;2022-09-03T16:01:41;97237.00;;;28.00
19666;BMP180;9980;51.020;7.772;2022-09-03T16:07:00;97233.00;;;28.00
19666;BMP180;9980;51.020;7.772;2022-09-03T16:09:44;97239.00;;;28.00
19666;BMP180;9980;51.020;7.772;2022-09-03T16:13:06;97252.00;;;27.90
19666;BMP180;9980;51.020;7.772;2022-09-03T16:16:02;97255.00;;;27.90
19666;BMP180;9980;51.020;7.772;2022-09-03T16:18:46;97248.00;;;27.90
19666;BMP180;9980;51.020;7.772;2022-09-03T16:21:40;97256.00;;;27.80
19666;BMP180;9980;51.020;7.772;2022-09-03T16:24:32;97243.00;;;27.80
19666;BMP180;9980;51.020;7.772;2022-09-03T16:27:32;97240.00;;;27.70
19666;BMP180;9980;51.020;7.772;2022-09-03T16:30:11;97261.00;;;27.70
19666;BMP180;9980;51.020;7.772;2022-09-03T16:33:01;97244.00;;;27.60
19666;BMP180;9980;51.020;7.772;2022-09-03T16:41:28;97267.00;;;27.50
19666;BMP180;9980;51.020;7.772;2022-09-03T16:44:55;97257.00;;;27.40
19666;BMP180;9980;51.020;7.772;2022-09-03T16:48:00;97254.00;;;27.30
19666;BMP180;9980;51.020;7.772;2022-09-03T16:53:44;97258.00;;;27.20
19666;BMP180;9980;51.020;7.772;2022-09-03T16:56:53;97265.00;;;27.10
19666;BMP180;9980;51.020;7.772;2022-09-03T16:59:39;97270.00;;;27.10
19666;BMP180;9980;51.020;7.772;2022-09-03T17:11:38;97268.00;;;26.80
19666;BMP180;9980;51.020;7.772;2022-09-03T17:14:49;97274.00;;;26.70
19666;BMP180;9980;51.020;7.772;2022-09-03T17:17:39;97258.00;;;26.70
19666;BMP180;9980;51.020;7.772;2022-09-03T17:20:41;97272.00;;;26.60
19666;BMP180;9980;51.020;7.772;2022-09-03T17:33:23;97280.00;;;26.30
19666;BMP180;9980;51.020;7.772;2022-09-03T17:41:37;97283.00;;;26.10
19666;BMP180;9980;51.020;7.772;2022-09-03T17:47:26;97287.00;;;26.00
19666;BMP180;9980;51.020;7.772;2022-09-03T17:50:20;97289.00;;;25.90
19666;BMP180;9980;51.020;7.772;2022-09-03T17:52:59;97288.00;;;25.90
19666;BMP180;9980;51.020;7.772;2022-09-03T17:55:44;97299.00;;;25.90
19666;BMP180;9980;51.020;7.772;2022-09-03T17:58:43;97311.00;;;25.80
19666;BMP180;9980;51.020;7.772;2022-09-03T18:01:23;97303.00;;;25.80
19666;BMP180;9980;51.020;7.772;2022-09-03T18:04:01;97310.00;;;25.70
19666;BMP180;9980;51.020;7.772;2022-09-03T18:09:34;97323.00;;;25.60
19666;BMP180;9980;51.020;7.772;2022-09-03T18:12:40;97331.00;;;25.50
19666;BMP180;9980;51.020;7.772;2022-09-03T18:15:27;97337.00;;;25.40
19666;BMP180;9980;51.020;7.772;2022-09-03T18:18:19;97327.00;;;25.40
19666;BMP180;9980;51.020;7.772;2022-09-03T18:20:54;97335.00;;;25.30
19666;BMP180;9980;51.020;7.772;2022-09-03T18:24:16;97341.00;;;25.30